createdAt,value
2023-03-04T00:03:22.387Z,14.00
2023-03-04T00:08:44.265Z,15.50
2023-03-04T00:14:06.085Z,16.80
2023-03-04T00:19:28.117Z,17.70
2023-03-04T00:24:50.081Z,18.80
2023-03-04T00:30:14.586Z,18.20
2023-03-04T00:35:37.427Z,19.30
2023-03-04T00:41:01.257Z,18.60
2023-03-04T00:46:24.238Z,20.10
2023-03-04T00:51:48.478Z,20.80
2023-03-04T00:57:10.344Z,20.30
2023-03-04T01:02:32.275Z,18.70
2023-03-04T01:07:56.214Z,16.40
2023-03-04T01:13:18.743Z,20.10
2023-03-04T01:18:40.674Z,17.70
2023-03-04T01:24:04.323Z,16.80
2023-03-04T01:29:27.287Z,19.50
2023-03-04T01:34:51.084Z,20.70
2023-03-04T01:40:16.523Z,16.20
2023-03-04T01:45:40.266Z,19.20
2023-03-04T01:51:05.710Z,17.20
2023-03-04T01:56:35.452Z,17.10
2023-03-04T02:02:00.804Z,19.60
2023-03-04T02:07:22.683Z,18.10
2023-03-04T02:12:45.360Z,17.90
2023-03-04T02:18:22.113Z,17.60
2023-03-04T02:24:03.178Z,18.00
2023-03-04T02:29:25.275Z,15.40
2023-03-04T02:34:49.506Z,17.80
2023-03-04T02:40:24.174Z,18.20
2023-03-04T02:45:50.933Z,17.80
2023-03-04T02:51:13.053Z,17.90
2023-03-04T02:56:34.883Z,16.70
2023-03-04T03:01:57.006Z,17.40
2023-03-04T03:07:20.157Z,14.80
2023-03-04T03:12:42.397Z,14.00
2023-03-04T03:18:04.311Z,12.50
2023-03-04T03:23:29.348Z,14.10
2023-03-04T03:28:53.588Z,15.40
2023-03-04T03:34:16.517Z,18.50
2023-03-04T03:39:38.171Z,13.70
2023-03-04T03:45:00.121Z,20.20
2023-03-04T03:50:22.201Z,19.10
2023-03-04T03:55:45.926Z,18.80
2023-03-04T04:01:09.374Z,19.30
2023-03-04T04:06:31.105Z,18.80
2023-03-04T04:11:53.145Z,20.10
2023-03-04T04:17:15.563Z,19.00
2023-03-04T04:22:37.794Z,20.10
2023-03-04T04:27:59.935Z,18.10
2023-03-04T04:33:22.053Z,19.70
2023-03-04T04:38:44.079Z,18.40
2023-03-04T04:44:06.062Z,20.40
2023-03-04T04:49:30.344Z,17.60
2023-03-04T04:54:52.077Z,18.40
2023-03-04T05:00:14.505Z,16.60
2023-03-04T05:05:36.134Z,18.30
2023-03-04T05:10:58.672Z,17.50
2023-03-04T05:16:20.605Z,18.80
2023-03-04T05:21:42.736Z,21.70
2023-03-04T05:27:04.560Z,20.10
2023-03-04T05:32:26.912Z,18.00
2023-03-04T05:37:48.920Z,17.60
2023-03-04T05:43:11.253Z,16.50
2023-03-04T05:48:33.290Z,16.40
2023-03-04T05:53:57.721Z,15.40
2023-03-04T05:59:20.940Z,15.70
2023-03-04T06:04:45.596Z,12.50
2023-03-04T06:10:08.334Z,15.50
2023-03-04T06:15:31.266Z,14.30
2023-03-04T06:21:00.759Z,16.10
2023-03-04T06:26:25.620Z,13.60
2023-03-04T06:31:48.163Z,13.60
2023-03-04T06:37:09.917Z,11.70
2023-03-04T06:42:31.948Z,13.10
2023-03-04T06:47:57.080Z,11.70
2023-03-04T06:53:19.009Z,13.80
2023-03-04T06:58:40.942Z,14.20
2023-03-04T07:04:03.194Z,16.00
2023-03-04T07:09:25.200Z,15.20
2023-03-04T07:14:47.330Z,13.40
2023-03-04T07:20:10.260Z,13.00
2023-03-04T07:25:31.707Z,16.40
2023-03-04T07:30:53.822Z,16.40
2023-03-04T07:36:16.655Z,12.10
2023-03-04T07:41:38.990Z,17.30
2023-03-04T07:47:00.815Z,13.30
2023-03-04T07:52:22.847Z,14.40
2023-03-04T07:57:46.857Z,14.50
2023-03-04T08:03:08.513Z,14.90
2023-03-04T08:08:31.542Z,12.20
2023-03-04T08:13:54.529Z,13.10
2023-03-04T08:19:16.509Z,14.90
2023-03-04T08:24:38.530Z,12.10
2023-03-04T08:30:00.350Z,13.50
2023-03-04T08:35:24.563Z,13.30
2023-03-04T08:40:46.425Z,13.50
2023-03-04T08:46:08.680Z,13.80
2023-03-04T08:51:36.015Z,13.50
2023-03-04T08:56:57.743Z,13.60
2023-03-04T09:02:20.176Z,16.60
2023-03-04T09:07:41.997Z,15.80
2023-03-04T09:13:04.304Z,16.50
2023-03-04T09:18:27.261Z,14.20
2023-03-04T09:23:49.103Z,16.40
2023-03-04T09:29:11.019Z,15.30
2023-03-04T09:34:35.058Z,16.00
2023-03-04T09:39:57.290Z,18.80
2023-03-04T09:45:22.425Z,17.00
2023-03-04T09:51:09.243Z,14.80
2023-03-04T09:56:32.074Z,18.00
2023-03-04T10:01:56.106Z,18.70
2023-03-04T10:07:21.662Z,15.00
2023-03-04T10:12:46.691Z,17.80
2023-03-04T10:18:34.363Z,13.90
2023-03-04T10:23:59.438Z,17.60
2023-03-04T10:29:24.715Z,17.10
2023-03-04T10:34:47.208Z,13.70
2023-03-04T10:40:24.360Z,17.20
2023-03-04T10:45:46.942Z,15.10
2023-03-04T10:51:20.583Z,15.30
2023-03-04T10:56:45.935Z,17.60
2023-03-04T11:02:36.968Z,15.80
2023-03-04T11:08:00.405Z,20.20
2023-03-04T11:13:25.507Z,17.50
2023-03-04T11:18:50.871Z,18.10
2023-03-04T11:24:31.179Z,19.90
2023-03-04T11:30:02.732Z,21.20
2023-03-04T11:35:33.340Z,18.20
2023-03-04T11:40:59.451Z,36.80
2023-03-04T11:46:52.795Z,22.60
2023-03-04T11:52:50.158Z,20.60
2023-03-04T11:58:25.997Z,20.20
2023-03-04T12:03:54.874Z,20.10
2023-03-04T12:09:41.404Z,19.10
2023-03-04T12:15:08.349Z,22.10
2023-03-04T12:20:35.996Z,20.90
2023-03-04T12:26:13.898Z,24.40
2023-03-04T12:31:41.445Z,23.30
2023-03-04T12:37:36.573Z,28.30
2023-03-04T12:43:04.495Z,25.50
2023-03-04T12:48:37.291Z,47.20
2023-03-04T12:54:10.861Z,21.60
2023-03-04T12:59:47.141Z,20.80
2023-03-04T13:05:23.155Z,15.20
2023-03-04T13:10:45.149Z,14.00
2023-03-04T13:16:19.261Z,11.80
2023-03-04T13:21:46.690Z,12.80
2023-03-04T13:27:48.864Z,11.80
2023-03-04T13:33:13.688Z,15.60
2023-03-04T13:38:37.860Z,9.40
2023-03-04T13:44:06.687Z,8.40
2023-03-04T13:49:29.001Z,9.10
2023-03-04T13:54:50.828Z,10.40
2023-03-04T14:00:14.012Z,10.70
2023-03-04T14:05:35.992Z,9.60
2023-03-04T14:10:57.619Z,9.60
2023-03-04T14:16:21.470Z,11.20
2023-03-04T14:21:47.800Z,14.90
2023-03-04T14:27:14.462Z,18.30
2023-03-04T14:32:36.161Z,9.70
2023-03-04T14:38:00.018Z,10.60
2023-03-04T14:43:22.958Z,15.10
2023-03-04T14:48:52.243Z,17.40
2023-03-04T14:54:29.791Z,14.20
2023-03-04T14:59:54.609Z,11.40
2023-03-04T15:05:27.601Z,12.30
2023-03-04T15:11:02.172Z,11.80
2023-03-04T15:16:26.283Z,13.20
2023-03-04T15:21:48.354Z,12.10
2023-03-04T15:27:12.380Z,18.80
2023-03-04T15:32:34.438Z,17.80
2023-03-04T15:37:57.854Z,23.50
2023-03-04T15:43:22.274Z,17.20
2023-03-04T15:48:44.399Z,17.80
2023-03-04T15:54:09.401Z,17.00
2023-03-04T15:59:34.390Z,19.00
2023-03-04T16:04:56.399Z,20.70
2023-03-04T16:10:26.005Z,21.30
2023-03-04T16:15:49.265Z,19.40
2023-03-04T16:21:17.129Z,20.40
2023-03-04T16:26:38.889Z,26.70
2023-03-04T16:32:00.935Z,20.30
2023-03-04T16:37:23.332Z,20.70
2023-03-04T16:42:45.369Z,16.10
2023-03-04T16:48:07.499Z,20.50
2023-03-04T16:53:33.934Z,20.50
2023-03-04T16:58:55.976Z,24.90
2023-03-04T17:04:17.905Z,21.10
2023-03-04T17:09:41.671Z,28.20
2023-03-04T17:15:04.473Z,29.40
2023-03-04T17:20:26.395Z,25.40
2023-03-04T17:25:55.502Z,19.80
2023-03-04T17:31:19.738Z,19.80
2023-03-04T17:36:42.024Z,22.80
2023-03-04T17:42:04.456Z,25.30
2023-03-04T17:47:26.688Z,22.40
2023-03-04T17:52:48.319Z,24.70
2023-03-04T17:58:11.350Z,26.60
2023-03-04T18:03:33.376Z,16.70
2023-03-04T18:08:55.207Z,20.10
2023-03-04T18:14:17.445Z,19.20
2023-03-04T18:19:39.904Z,15.10
2023-03-04T18:25:02.104Z,15.50
2023-03-04T18:30:27.682Z,20.30
2023-03-04T18:35:50.492Z,18.60
2023-03-04T18:41:14.388Z,16.00
2023-03-04T18:46:44.432Z,16.10
2023-03-04T18:52:06.099Z,15.80
2023-03-04T18:57:28.130Z,17.50
2023-03-04T19:02:52.775Z,14.70
2023-03-04T19:08:14.510Z,13.60
2023-03-04T19:13:38.763Z,15.70
2023-03-04T19:19:00.364Z,18.60
2023-03-04T19:24:21.991Z,21.70
2023-03-04T19:29:43.922Z,15.40
2023-03-04T19:35:06.321Z,24.40
2023-03-04T19:40:28.686Z,17.40
2023-03-04T19:45:57.232Z,15.00
2023-03-04T19:56:42.399Z,11.40
2023-03-04T20:02:04.826Z,9.70
2023-03-04T20:07:26.290Z,9.10
2023-03-04T20:12:48.446Z,9.60
2023-03-04T20:18:10.585Z,11.30
2023-03-04T20:23:32.748Z,8.70
2023-03-04T20:28:55.075Z,10.80
2023-03-04T20:34:17.114Z,9.20
2023-03-04T20:39:38.655Z,9.00
2023-03-04T20:45:00.870Z,8.20
2023-03-04T20:50:22.885Z,7.90
2023-03-04T20:55:45.030Z,7.80
2023-03-04T21:01:06.837Z,7.30
2023-03-04T21:06:29.524Z,7.80
2023-03-04T21:11:51.702Z,10.40
2023-03-04T21:17:16.175Z,9.80
2023-03-04T21:22:37.779Z,5.80
2023-03-04T21:27:59.917Z,4.40
2023-03-04T21:33:24.657Z,4.00
2023-03-04T21:38:46.783Z,3.10
2023-03-04T21:44:14.480Z,3.60
2023-03-04T21:49:45.196Z,4.10
2023-03-04T21:55:09.942Z,5.20
2023-03-04T22:00:32.476Z,6.30
2023-03-04T22:05:54.216Z,5.90
2023-03-04T22:11:16.889Z,7.50
2023-03-04T22:16:54.155Z,6.50
2023-03-04T22:22:19.216Z,5.00
2023-03-04T22:27:41.222Z,5.50
2023-03-04T22:33:04.045Z,5.30
2023-03-04T22:38:25.875Z,6.50
2023-03-04T22:43:48.811Z,8.10
2023-03-04T22:49:13.177Z,8.10
2023-03-04T22:54:34.875Z,9.60
2023-03-04T22:59:57.497Z,11.70
2023-03-04T23:05:21.283Z,12.30
2023-03-04T23:10:43.413Z,11.60
2023-03-04T23:16:08.222Z,6.70
2023-03-04T23:21:34.956Z,4.70
2023-03-04T23:26:56.877Z,3.90
2023-03-04T23:32:18.884Z,4.50
2023-03-04T23:37:42.453Z,4.90
2023-03-04T23:43:04.537Z,5.90
2023-03-04T23:48:26.603Z,6.10
2023-03-04T23:53:48.849Z,7.30
2023-03-04T23:59:12.084Z,4.80
